sensor_id;sensor_type;location;lat;lon;timestamp;P1;durP1;ratioP1;P2;durP2;ratioP2
11269;SDS011;5692;48.956;9.200;2022-08-01T00:00:48;250.60;;;238.60;;
11269;SDS011;5692;48.956;9.200;2022-08-01T00:03:14;244.23;;;232.55;;
11269;SDS011;5692;48.956;9.200;2022-08-01T00:05:43;238.48;;;227.07;;
11269;SDS011;5692;48.956;9.200;2022-08-01T00:08:10;237.68;;;226.32;;
11269;SDS011;5692;48.956;9.200;2022-08-01T00:10:36;243.77;;;232.10;;
11269;SDS011;5692;48.956;9.200;2022-08-01T00:13:02;250.60;;;238.60;;
11269;SDS011;5692;48.956;9.200;2022-08-01T00:15:28;250.02;;;238.05;;
11269;SDS011;5692;48.956;9.200;2022-08-01T00:17:57;243.93;;;232.25;;
11269;SDS011;5692;48.956;9.200;2022-08-01T00:20:23;242.80;;;231.18;;
11269;SDS011;5692;48.956;9.200;2022-08-01T00:22:49;254.90;;;242.70;;
11269;SDS011;5692;48.956;9.200;2022-08-01T00:25:15;247.60;;;235.75;;
11269;SDS011;5692;48.956;9.200;2022-08-01T00:27:41;233.77;;;222.57;;
11269;SDS011;5692;48.956;9.200;2022-08-01T00:30:07;233.02;;;221.88;;
11269;SDS011;5692;48.956;9.200;2022-08-01T00:32:34;240.13;;;228.65;;
11269;SDS011;5692;48.956;9.200;2022-08-01T00:35:00;232.30;;;221.20;;
11269;SDS011;5692;48.956;9.200;2022-08-01T00:37:28;249.27;;;237.38;;
11269;SDS011;5692;48.956;9.200;2022-08-01T00:39:54;247.75;;;235.90;;
11269;SDS011;5692;48.956;9.200;2022-08-01T00:42:20;230.15;;;219.15;;
11269;SDS011;5692;48.956;9.200;2022-08-01T00:44:47;240.45;;;228.95;;
11269;SDS011;5692;48.956;9.200;2022-08-01T00:47:13;237.00;;;225.68;;
11269;SDS011;5692;48.956;9.200;2022-08-01T00:49:41;236.57;;;225.25;;
11269;SDS011;5692;48.956;9.200;2022-08-01T00:52:11;228.27;;;217.35;;
11269;SDS011;5692;48.956;9.200;2022-08-01T00:54:40;244.27;;;232.57;;
11269;SDS011;5692;48.956;9.200;2022-08-01T00:57:06;236.77;;;225.45;;
11269;SDS011;5692;48.956;9.200;2022-08-01T00:59:32;237.90;;;226.50;;
11269;SDS011;5692;48.956;9.200;2022-08-01T01:01:59;244.25;;;232.55;;
11269;SDS011;5692;48.956;9.200;2022-08-01T01:04:25;237.98;;;226.60;;
11269;SDS011;5692;48.956;9.200;2022-08-01T01:06:59;248.13;;;236.27;;
11269;SDS011;5692;48.956;9.200;2022-08-01T01:14:30;245.30;;;233.55;;
11269;SDS011;5692;48.956;9.200;2022-08-01T01:16:59;238.68;;;227.25;;
11269;SDS011;5692;48.956;9.200;2022-08-01T01:19:28;239.88;;;228.40;;
11269;SDS011;5692;48.956;9.200;2022-08-01T01:29:56;242.25;;;230.68;;
11269;SDS011;5692;48.956;9.200;2022-08-01T01:34:53;235.35;;;224.10;;
11269;SDS011;5692;48.956;9.200;2022-08-01T01:37:21;237.77;;;226.40;;
11269;SDS011;5692;48.956;9.200;2022-08-01T01:39:48;238.13;;;226.73;;
11269;SDS011;5692;48.956;9.200;2022-08-01T01:42:15;234.40;;;223.20;;
11269;SDS011;5692;48.956;9.200;2022-08-01T01:44:42;228.15;;;217.23;;
11269;SDS011;5692;48.956;9.200;2022-08-01T01:47:09;234.80;;;223.60;;
11269;SDS011;5692;48.956;9.200;2022-08-01T01:49:35;251.20;;;239.18;;
11269;SDS011;5692;48.956;9.200;2022-08-01T01:52:04;236.32;;;225.00;;
11269;SDS011;5692;48.956;9.200;2022-08-01T01:54:37;240.93;;;229.40;;
11269;SDS011;5692;48.956;9.200;2022-08-01T01:57:05;233.00;;;221.85;;
11269;SDS011;5692;48.956;9.200;2022-08-01T01:59:32;227.32;;;216.43;;
11269;SDS011;5692;48.956;9.200;2022-08-01T02:02:01;244.65;;;232.95;;
11269;SDS011;5692;48.956;9.200;2022-08-01T02:04:28;257.85;;;245.55;;
11269;SDS011;5692;48.956;9.200;2022-08-01T02:06:54;250.57;;;238.57;;
11269;SDS011;5692;48.956;9.200;2022-08-01T02:09:21;231.38;;;220.27;;
11269;SDS011;5692;48.956;9.200;2022-08-01T02:11:49;247.10;;;235.30;;
11269;SDS011;5692;48.956;9.200;2022-08-01T02:14:16;238.48;;;227.07;;
11269;SDS011;5692;48.956;9.200;2022-08-01T02:16:44;238.38;;;226.98;;
11269;SDS011;5692;48.956;9.200;2022-08-01T02:19:10;231.57;;;220.48;;
11269;SDS011;5692;48.956;9.200;2022-08-01T02:21:49;231.88;;;220.77;;
11269;SDS011;5692;48.956;9.200;2022-08-01T02:27:00;232.75;;;221.65;;
11269;SDS011;5692;48.956;9.200;2022-08-01T02:29:27;237.93;;;226.52;;
11269;SDS011;5692;48.956;9.200;2022-08-01T02:31:57;236.10;;;224.80;;
11269;SDS011;5692;48.956;9.200;2022-08-01T02:34:23;243.30;;;231.65;;
11269;SDS011;5692;48.956;9.200;2022-08-01T02:36:51;237.80;;;226.40;;
11269;SDS011;5692;48.956;9.200;2022-08-01T02:39:18;230.60;;;219.57;;
11269;SDS011;5692;48.956;9.200;2022-08-01T02:41:46;224.93;;;214.18;;
11269;SDS011;5692;48.956;9.200;2022-08-01T02:44:15;219.93;;;209.40;;
11269;SDS011;5692;48.956;9.200;2022-08-01T02:46:43;222.68;;;212.02;;
11269;SDS011;5692;48.956;9.200;2022-08-01T02:49:11;237.05;;;225.75;;
11269;SDS011;5692;48.956;9.200;2022-08-01T02:51:38;251.27;;;239.25;;
11269;SDS011;5692;48.956;9.200;2022-08-01T02:54:05;262.17;;;249.65;;
11269;SDS011;5692;48.956;9.200;2022-08-01T02:56:34;264.20;;;251.57;;
11269;SDS011;5692;48.956;9.200;2022-08-01T02:59:06;235.07;;;223.82;;
11269;SDS011;5692;48.956;9.200;2022-08-01T03:01:33;218.38;;;207.93;;
11269;SDS011;5692;48.956;9.200;2022-08-01T03:04:00;210.35;;;200.27;;
11269;SDS011;5692;48.956;9.200;2022-08-01T03:06:27;220.95;;;210.38;;
11269;SDS011;5692;48.956;9.200;2022-08-01T03:08:56;226.85;;;216.00;;
11269;SDS011;5692;48.956;9.200;2022-08-01T03:11:23;242.57;;;230.98;;
11269;SDS011;5692;48.956;9.200;2022-08-01T03:13:50;228.98;;;218.00;;
11269;SDS011;5692;48.956;9.200;2022-08-01T03:16:17;231.57;;;220.48;;
11269;SDS011;5692;48.956;9.200;2022-08-01T03:18:46;224.50;;;213.75;;
11269;SDS011;5692;48.956;9.200;2022-08-01T03:21:14;203.70;;;193.95;;
11269;SDS011;5692;48.956;9.200;2022-08-01T03:23:41;187.82;;;178.82;;
11269;SDS011;5692;48.956;9.200;2022-08-01T03:26:11;210.70;;;200.60;;
11269;SDS011;5692;48.956;9.200;2022-08-01T03:28:37;220.02;;;209.52;;
11269;SDS011;5692;48.956;9.200;2022-08-01T03:31:04;217.43;;;207.02;;
11269;SDS011;5692;48.956;9.200;2022-08-01T03:33:30;205.20;;;195.40;;
11269;SDS011;5692;48.956;9.200;2022-08-01T03:35:57;208.65;;;198.68;;
11269;SDS011;5692;48.956;9.200;2022-08-01T03:38:25;193.23;;;183.98;;
11269;SDS011;5692;48.956;9.200;2022-08-01T03:41:02;198.20;;;188.70;;
11269;SDS011;5692;48.956;9.200;2022-08-01T03:43:38;198.73;;;189.23;;
11269;SDS011;5692;48.956;9.200;2022-08-01T03:46:07;224.32;;;213.60;;
11269;SDS011;5692;48.956;9.200;2022-08-01T03:48:35;217.32;;;206.93;;
11269;SDS011;5692;48.956;9.200;2022-08-01T03:51:02;211.57;;;201.48;;
11269;SDS011;5692;48.956;9.200;2022-08-01T03:53:30;210.13;;;200.05;;
11269;SDS011;5692;48.956;9.200;2022-08-01T03:55:58;219.00;;;208.50;;
11269;SDS011;5692;48.956;9.200;2022-08-01T03:58:25;217.98;;;207.55;;
11269;SDS011;5692;48.956;9.200;2022-08-01T04:00:55;224.00;;;213.30;;
11269;SDS011;5692;48.956;9.200;2022-08-01T04:03:22;217.60;;;207.20;;
11269;SDS011;5692;48.956;9.200;2022-08-01T04:05:48;226.15;;;215.35;;
11269;SDS011;5692;48.956;9.200;2022-08-01T04:08:17;223.07;;;212.40;;
11269;SDS011;5692;48.956;9.200;2022-08-01T04:10:43;225.77;;;214.98;;
11269;SDS011;5692;48.956;9.200;2022-08-01T04:13:09;227.45;;;216.57;;
11269;SDS011;5692;48.956;9.200;2022-08-01T04:15:35;217.70;;;207.27;;
11269;SDS011;5692;48.956;9.200;2022-08-01T04:18:04;219.43;;;208.93;;
11269;SDS011;5692;48.956;9.200;2022-08-01T04:20:31;215.80;;;205.50;;
11269;SDS011;5692;48.956;9.200;2022-08-01T04:22:57;200.23;;;190.63;;
11269;SDS011;5692;48.956;9.200;2022-08-01T04:25:32;212.85;;;202.65;;
11269;SDS011;5692;48.956;9.200;2022-08-01T04:27:59;220.43;;;209.88;;
11269;SDS011;5692;48.956;9.200;2022-08-01T04:30:29;226.93;;;216.07;;
11269;SDS011;5692;48.956;9.200;2022-08-01T04:32:57;209.65;;;199.60;;
11269;SDS011;5692;48.956;9.200;2022-08-01T04:35:24;215.15;;;204.88;;
11269;SDS011;5692;48.956;9.200;2022-08-01T04:37:52;216.55;;;206.20;;
11269;SDS011;5692;48.956;9.200;2022-08-01T04:40:19;213.60;;;203.38;;
11269;SDS011;5692;48.956;9.200;2022-08-01T04:42:49;218.55;;;208.07;;
11269;SDS011;5692;48.956;9.200;2022-08-01T04:45:15;211.30;;;201.18;;
11269;SDS011;5692;48.956;9.200;2022-08-01T04:47:42;173.48;;;165.18;;
11269;SDS011;5692;48.956;9.200;2022-08-01T04:50:09;209.93;;;199.90;;
11269;SDS011;5692;48.956;9.200;2022-08-01T04:52:36;218.75;;;208.27;;
11269;SDS011;5692;48.956;9.200;2022-08-01T04:55:03;210.95;;;200.88;;
11269;SDS011;5692;48.956;9.200;2022-08-01T04:57:32;203.82;;;194.07;;
11269;SDS011;5692;48.956;9.200;2022-08-01T04:59:58;207.40;;;197.50;;
11269;SDS011;5692;48.956;9.200;2022-08-01T05:02:24;200.18;;;190.60;;
11269;SDS011;5692;48.956;9.200;2022-08-01T05:04:53;193.80;;;184.50;;
11269;SDS011;5692;48.956;9.200;2022-08-01T05:07:20;185.18;;;176.30;;
11269;SDS011;5692;48.956;9.200;2022-08-01T05:09:46;209.80;;;199.75;;
11269;SDS011;5692;48.956;9.200;2022-08-01T05:12:12;201.60;;;191.95;;
11269;SDS011;5692;48.956;9.200;2022-08-01T05:14:39;192.65;;;183.45;;
11269;SDS011;5692;48.956;9.200;2022-08-01T05:17:05;202.00;;;192.30;;
11269;SDS011;5692;48.956;9.200;2022-08-01T05:19:38;195.00;;;185.65;;
11269;SDS011;5692;48.956;9.200;2022-08-01T05:22:05;197.15;;;187.75;;
11269;SDS011;5692;48.956;9.200;2022-08-01T05:24:32;212.85;;;202.68;;
11269;SDS011;5692;48.956;9.200;2022-08-01T05:26:58;210.48;;;200.38;;
11269;SDS011;5692;48.956;9.200;2022-08-01T05:29:25;202.63;;;192.93;;
11269;SDS011;5692;48.956;9.200;2022-08-01T05:31:51;203.80;;;194.05;;
11269;SDS011;5692;48.956;9.200;2022-08-01T05:34:18;208.27;;;198.32;;
11269;SDS011;5692;48.956;9.200;2022-08-01T05:36:44;205.00;;;195.20;;
11269;SDS011;5692;48.956;9.200;2022-08-01T05:39:11;213.60;;;203.38;;
11269;SDS011;5692;48.956;9.200;2022-08-01T05:41:37;203.93;;;194.18;;
11269;SDS011;5692;48.956;9.200;2022-08-01T05:44:04;210.35;;;200.27;;
11269;SDS011;5692;48.956;9.200;2022-08-01T05:46:30;212.77;;;202.57;;
11269;SDS011;5692;48.956;9.200;2022-08-01T05:48:57;202.73;;;193.02;;
11269;SDS011;5692;48.956;9.200;2022-08-01T05:51:23;211.02;;;200.93;;
11269;SDS011;5692;48.956;9.200;2022-08-01T05:53:49;208.82;;;198.82;;
11269;SDS011;5692;48.956;9.200;2022-08-01T05:56:15;215.10;;;204.80;;
11269;SDS011;5692;48.956;9.200;2022-08-01T05:58:41;200.40;;;190.82;;
11269;SDS011;5692;48.956;9.200;2022-08-01T06:01:08;199.98;;;190.38;;
11269;SDS011;5692;48.956;9.200;2022-08-01T06:03:34;202.55;;;192.85;;
11269;SDS011;5692;48.956;9.200;2022-08-01T06:06:00;203.32;;;193.63;;
11269;SDS011;5692;48.956;9.200;2022-08-01T06:08:26;213.00;;;202.80;;
11269;SDS011;5692;48.956;9.200;2022-08-01T06:10:53;210.35;;;200.27;;
11269;SDS011;5692;48.956;9.200;2022-08-01T06:13:19;189.43;;;180.35;;
11269;SDS011;5692;48.956;9.200;2022-08-01T06:15:47;199.95;;;190.35;;
11269;SDS011;5692;48.956;9.200;2022-08-01T06:18:16;207.20;;;197.27;;
11269;SDS011;5692;48.956;9.200;2022-08-01T06:20:42;213.55;;;203.35;;
11269;SDS011;5692;48.956;9.200;2022-08-01T06:23:09;226.75;;;215.90;;
11269;SDS011;5692;48.956;9.200;2022-08-01T06:25:35;206.75;;;196.88;;
11269;SDS011;5692;48.956;9.200;2022-08-01T06:28:01;210.23;;;200.18;;
11269;SDS011;5692;48.956;9.200;2022-08-01T06:30:30;215.35;;;205.05;;
11269;SDS011;5692;48.956;9.200;2022-08-01T06:32:56;211.02;;;200.93;;
11269;SDS011;5692;48.956;9.200;2022-08-01T06:35:26;219.13;;;208.65;;
11269;SDS011;5692;48.956;9.200;2022-08-01T06:37:57;235.40;;;224.15;;
11269;SDS011;5692;48.956;9.200;2022-08-01T06:40:27;223.10;;;212.40;;
11269;SDS011;5692;48.956;9.200;2022-08-01T06:42:53;236.52;;;225.23;;
11269;SDS011;5692;48.956;9.200;2022-08-01T06:45:19;223.68;;;212.98;;
11269;SDS011;5692;48.956;9.200;2022-08-01T06:47:47;246.23;;;234.43;;
11269;SDS011;5692;48.956;9.200;2022-08-01T06:50:13;238.27;;;226.87;;
11269;SDS011;5692;48.956;9.200;2022-08-01T06:52:49;241.30;;;229.77;;
11269;SDS011;5692;48.956;9.200;2022-08-01T06:55:15;225.90;;;215.10;;
11269;SDS011;5692;48.956;9.200;2022-08-01T06:57:45;217.40;;;207.00;;
11269;SDS011;5692;48.956;9.200;2022-08-01T07:00:11;226.20;;;215.40;;
11269;SDS011;5692;48.956;9.200;2022-08-01T07:02:40;237.23;;;225.90;;
11269;SDS011;5692;48.956;9.200;2022-08-01T07:05:09;245.93;;;234.17;;
11269;SDS011;5692;48.956;9.200;2022-08-01T07:07:36;232.23;;;221.13;;
11269;SDS011;5692;48.956;9.200;2022-08-01T07:10:05;236.23;;;224.93;;
11269;SDS011;5692;48.956;9.200;2022-08-01T07:12:31;244.43;;;232.73;;
11269;SDS011;5692;48.956;9.200;2022-08-01T07:14:58;224.57;;;213.83;;
11269;SDS011;5692;48.956;9.200;2022-08-01T07:17:24;226.03;;;215.20;;
11269;SDS011;5692;48.956;9.200;2022-08-01T07:19:50;224.33;;;213.63;;
11269;SDS011;5692;48.956;9.200;2022-08-01T07:22:18;229.10;;;218.13;;
11269;SDS011;5692;48.956;9.200;2022-08-01T07:24:50;216.13;;;205.80;;
11269;SDS011;5692;48.956;9.200;2022-08-01T07:27:16;244.03;;;232.37;;
11269;SDS011;5692;48.956;9.200;2022-08-01T07:29:42;227.83;;;216.93;;
11269;SDS011;5692;48.956;9.200;2022-08-01T07:32:08;236.17;;;224.87;;
11269;SDS011;5692;48.956;9.200;2022-08-01T07:34:34;225.53;;;214.73;;
11269;SDS011;5692;48.956;9.200;2022-08-01T07:37:00;227.70;;;216.80;;
11269;SDS011;5692;48.956;9.200;2022-08-01T07:39:26;237.67;;;226.30;;
11269;SDS011;5692;48.956;9.200;2022-08-01T07:41:52;222.00;;;211.40;;
11269;SDS011;5692;48.956;9.200;2022-08-01T07:44:18;222.50;;;211.87;;
11269;SDS011;5692;48.956;9.200;2022-08-01T07:46:44;213.73;;;203.53;;
11269;SDS011;5692;48.956;9.200;2022-08-01T07:49:10;219.37;;;208.87;;
11269;SDS011;5692;48.956;9.200;2022-08-01T07:51:42;223.27;;;212.57;;
11269;SDS011;5692;48.956;9.200;2022-08-01T07:54:08;214.53;;;204.27;;
11269;SDS011;5692;48.956;9.200;2022-08-01T07:56:34;215.20;;;204.90;;
11269;SDS011;5692;48.956;9.200;2022-08-01T07:59:00;230.27;;;219.23;;
11269;SDS011;5692;48.956;9.200;2022-08-01T08:01:26;224.27;;;213.53;;
11269;SDS011;5692;48.956;9.200;2022-08-01T08:03:53;230.70;;;219.70;;
11269;SDS011;5692;48.956;9.200;2022-08-01T08:06:19;221.37;;;210.80;;
11269;SDS011;5692;48.956;9.200;2022-08-01T08:08:47;218.43;;;207.97;;
11269;SDS011;5692;48.956;9.200;2022-08-01T08:11:13;225.70;;;214.90;;
11269;SDS011;5692;48.956;9.200;2022-08-01T08:13:40;240.17;;;228.67;;
11269;SDS011;5692;48.956;9.200;2022-08-01T08:16:06;235.77;;;224.50;;
11269;SDS011;5692;48.956;9.200;2022-08-01T08:18:32;228.63;;;217.70;;
11269;SDS011;5692;48.956;9.200;2022-08-01T08:20:58;225.73;;;214.93;;
11269;SDS011;5692;48.956;9.200;2022-08-01T08:23:24;226.10;;;215.27;;
11269;SDS011;5692;48.956;9.200;2022-08-01T08:26:08;217.23;;;206.83;;
11269;SDS011;5692;48.956;9.200;2022-08-01T08:28:35;223.90;;;213.20;;
11269;SDS011;5692;48.956;9.200;2022-08-01T08:31:01;238.67;;;227.27;;
11269;SDS011;5692;48.956;9.200;2022-08-01T08:33:27;215.00;;;204.70;;
11269;SDS011;5692;48.956;9.200;2022-08-01T08:35:53;220.10;;;209.57;;
11269;SDS011;5692;48.956;9.200;2022-08-01T08:38:19;221.77;;;211.17;;
11269;SDS011;5692;48.956;9.200;2022-08-01T08:40:45;229.47;;;218.47;;
11269;SDS011;5692;48.956;9.200;2022-08-01T08:43:12;233.70;;;222.53;;
11269;SDS011;5692;48.956;9.200;2022-08-01T08:45:38;218.97;;;208.50;;
11269;SDS011;5692;48.956;9.200;2022-08-01T08:48:08;236.40;;;225.07;;
11269;SDS011;5692;48.956;9.200;2022-08-01T08:50:34;222.17;;;211.53;;
11269;SDS011;5692;48.956;9.200;2022-08-01T08:53:01;223.93;;;213.23;;
11269;SDS011;5692;48.956;9.200;2022-08-01T08:55:29;217.80;;;207.40;;
11269;SDS011;5692;48.956;9.200;2022-08-01T08:57:55;231.00;;;219.93;;
11269;SDS011;5692;48.956;9.200;2022-08-01T09:00:22;238.13;;;226.73;;
11269;SDS011;5692;48.956;9.200;2022-08-01T09:02:48;226.77;;;215.93;;
11269;SDS011;5692;48.956;9.200;2022-08-01T09:05:14;222.33;;;211.70;;
11269;SDS011;5692;48.956;9.200;2022-08-01T09:07:41;234.67;;;223.47;;
11269;SDS011;5692;48.956;9.200;2022-08-01T09:10:08;230.73;;;219.73;;
11269;SDS011;5692;48.956;9.200;2022-08-01T09:12:34;224.70;;;213.93;;
11269;SDS011;5692;48.956;9.200;2022-08-01T09:15:01;208.57;;;198.57;;
11269;SDS011;5692;48.956;9.200;2022-08-01T09:17:27;227.83;;;216.93;;
11269;SDS011;5692;48.956;9.200;2022-08-01T09:19:55;226.00;;;215.20;;
11269;SDS011;5692;48.956;9.200;2022-08-01T09:22:22;226.83;;;215.97;;
11269;SDS011;5692;48.956;9.200;2022-08-01T09:25:04;239.00;;;227.57;;
11269;SDS011;5692;48.956;9.200;2022-08-01T09:27:33;261.13;;;248.63;;
11269;SDS011;5692;48.956;9.200;2022-08-01T09:32:34;229.97;;;218.97;;
11269;SDS011;5692;48.956;9.200;2022-08-01T09:37:45;232.20;;;221.10;;
11269;SDS011;5692;48.956;9.200;2022-08-01T09:40:11;217.87;;;207.43;;
11269;SDS011;5692;48.956;9.200;2022-08-01T09:42:37;226.73;;;215.90;;
11269;SDS011;5692;48.956;9.200;2022-08-01T09:45:04;231.10;;;220.03;;
11269;SDS011;5692;48.956;9.200;2022-08-01T09:47:38;239.27;;;227.80;;
11269;SDS011;5692;48.956;9.200;2022-08-01T09:50:04;222.20;;;211.60;;
11269;SDS011;5692;48.956;9.200;2022-08-01T09:52:30;227.33;;;216.43;;
11269;SDS011;5692;48.956;9.200;2022-08-01T09:57:23;232.50;;;221.40;;
11269;SDS011;5692;48.956;9.200;2022-08-01T09:59:52;244.00;;;232.33;;
11269;SDS011;5692;48.956;9.200;2022-08-01T10:02:35;248.73;;;236.83;;
11269;SDS011;5692;48.956;9.200;2022-08-01T10:05:02;242.53;;;230.93;;
11269;SDS011;5692;48.956;9.200;2022-08-01T10:07:29;250.00;;;238.00;;
11269;SDS011;5692;48.956;9.200;2022-08-01T10:09:55;233.00;;;221.87;;
11269;SDS011;5692;48.956;9.200;2022-08-01T10:12:22;238.90;;;227.47;;
11269;SDS011;5692;48.956;9.200;2022-08-01T10:14:51;224.63;;;213.90;;
11269;SDS011;5692;48.956;9.200;2022-08-01T10:17:20;241.60;;;230.03;;
11269;SDS011;5692;48.956;9.200;2022-08-01T10:19:46;233.53;;;222.33;;
11269;SDS011;5692;48.956;9.200;2022-08-01T10:22:15;223.47;;;212.77;;
11269;SDS011;5692;48.956;9.200;2022-08-01T10:24:43;224.80;;;214.03;;
11269;SDS011;5692;48.956;9.200;2022-08-01T10:27:11;248.13;;;236.27;;
11269;SDS011;5692;48.956;9.200;2022-08-01T10:29:40;247.63;;;235.80;;
11269;SDS011;5692;48.956;9.200;2022-08-01T10:32:06;228.30;;;217.40;;
11269;SDS011;5692;48.956;9.200;2022-08-01T10:34:34;243.17;;;231.57;;
11269;SDS011;5692;48.956;9.200;2022-08-01T10:37:01;248.10;;;236.23;;
11269;SDS011;5692;48.956;9.200;2022-08-01T10:39:27;238.47;;;227.07;;
11269;SDS011;5692;48.956;9.200;2022-08-01T10:41:55;262.23;;;249.73;;
11269;SDS011;5692;48.956;9.200;2022-08-01T10:44:24;251.90;;;239.87;;
11269;SDS011;5692;48.956;9.200;2022-08-01T10:46:52;251.47;;;239.47;;
11269;SDS011;5692;48.956;9.200;2022-08-01T10:49:20;241.00;;;229.50;;
11269;SDS011;5692;48.956;9.200;2022-08-01T10:51:47;247.97;;;236.10;;
11269;SDS011;5692;48.956;9.200;2022-08-01T10:54:14;235.30;;;224.03;;
11269;SDS011;5692;48.956;9.200;2022-08-01T10:59:09;271.10;;;258.13;;
11269;SDS011;5692;48.956;9.200;2022-08-01T11:01:35;260.37;;;247.93;;
11269;SDS011;5692;48.956;9.200;2022-08-01T11:04:08;249.90;;;237.97;;
11269;SDS011;5692;48.956;9.200;2022-08-01T11:06:49;233.83;;;222.67;;
11269;SDS011;5692;48.956;9.200;2022-08-01T11:09:30;241.10;;;229.60;;
11269;SDS011;5692;48.956;9.200;2022-08-01T11:12:07;209.33;;;199.33;;
11269;SDS011;5692;48.956;9.200;2022-08-01T11:14:34;238.40;;;227.00;;
11269;SDS011;5692;48.956;9.200;2022-08-01T11:17:30;240.30;;;228.80;;
11269;SDS011;5692;48.956;9.200;2022-08-01T11:20:10;259.00;;;246.63;;
11269;SDS011;5692;48.956;9.200;2022-08-01T11:25:21;265.77;;;253.03;;
11269;SDS011;5692;48.956;9.200;2022-08-01T11:27:47;250.13;;;238.17;;
11269;SDS011;5692;48.956;9.200;2022-08-01T11:32:50;227.73;;;216.83;;
11269;SDS011;5692;48.956;9.200;2022-08-01T11:35:17;239.50;;;228.03;;
11269;SDS011;5692;48.956;9.200;2022-08-01T11:37:46;245.17;;;233.43;;
11269;SDS011;5692;48.956;9.200;2022-08-01T11:40:17;251.20;;;239.20;;
11269;SDS011;5692;48.956;9.200;2022-08-01T11:42:44;249.47;;;237.53;;
11269;SDS011;5692;48.956;9.200;2022-08-01T11:45:10;235.90;;;224.60;;
11269;SDS011;5692;48.956;9.200;2022-08-01T11:47:46;226.00;;;215.20;;
11269;SDS011;5692;48.956;9.200;2022-08-01T11:52:57;228.53;;;217.63;;
11269;SDS011;5692;48.956;9.200;2022-08-01T11:55:24;232.23;;;221.13;;
11269;SDS011;5692;48.956;9.200;2022-08-01T11:57:50;226.57;;;215.73;;
11269;SDS011;5692;48.956;9.200;2022-08-01T12:00:24;230.50;;;219.50;;
11269;SDS011;5692;48.956;9.200;2022-08-01T12:02:57;237.10;;;225.77;;
11269;SDS011;5692;48.956;9.200;2022-08-01T12:05:23;240.40;;;228.90;;
11269;SDS011;5692;48.956;9.200;2022-08-01T12:07:53;240.50;;;229.00;;
11269;SDS011;5692;48.956;9.200;2022-08-01T12:10:21;221.17;;;210.57;;
11269;SDS011;5692;48.956;9.200;2022-08-01T12:12:51;233.20;;;222.03;;
11269;SDS011;5692;48.956;9.200;2022-08-01T12:15:18;233.20;;;222.03;;
11269;SDS011;5692;48.956;9.200;2022-08-01T12:17:47;219.40;;;208.90;;
11269;SDS011;5692;48.956;9.200;2022-08-01T12:20:19;228.40;;;217.50;;
11269;SDS011;5692;48.956;9.200;2022-08-01T12:22:45;232.40;;;221.27;;
11269;SDS011;5692;48.956;9.200;2022-08-01T12:25:12;231.53;;;220.43;;
11269;SDS011;5692;48.956;9.200;2022-08-01T12:27:40;216.80;;;206.40;;
11269;SDS011;5692;48.956;9.200;2022-08-01T12:30:07;231.03;;;219.97;;
11269;SDS011;5692;48.956;9.200;2022-08-01T12:32:34;209.40;;;199.40;;
11269;SDS011;5692;48.956;9.200;2022-08-01T12:37:49;176.87;;;168.37;;
11269;SDS011;5692;48.956;9.200;2022-08-01T12:42:42;195.13;;;185.80;;
11269;SDS011;5692;48.956;9.200;2022-08-01T12:45:09;189.03;;;179.97;;
11269;SDS011;5692;48.956;9.200;2022-08-01T12:47:38;203.47;;;193.77;;
11269;SDS011;5692;48.956;9.200;2022-08-01T12:50:05;194.80;;;185.47;;
11269;SDS011;5692;48.956;9.200;2022-08-01T12:52:32;215.17;;;204.87;;
11269;SDS011;5692;48.956;9.200;2022-08-01T12:57:45;216.53;;;206.17;;
11269;SDS011;5692;48.956;9.200;2022-08-01T13:00:19;209.17;;;199.17;;
11269;SDS011;5692;48.956;9.200;2022-08-01T13:02:46;187.40;;;178.40;;
11269;SDS011;5692;48.956;9.200;2022-08-01T13:05:13;214.93;;;204.63;;
11269;SDS011;5692;48.956;9.200;2022-08-01T13:07:41;221.20;;;210.60;;
11269;SDS011;5692;48.956;9.200;2022-08-01T13:10:08;216.90;;;206.53;;
11269;SDS011;5692;48.956;9.200;2022-08-01T13:12:34;222.13;;;211.50;;
11269;SDS011;5692;48.956;9.200;2022-08-01T13:15:15;216.97;;;206.57;;
11269;SDS011;5692;48.956;9.200;2022-08-01T13:17:41;219.83;;;209.30;;
11269;SDS011;5692;48.956;9.200;2022-08-01T13:20:08;214.27;;;204.00;;
11269;SDS011;5692;48.956;9.200;2022-08-01T13:22:34;211.97;;;201.83;;
11269;SDS011;5692;48.956;9.200;2022-08-01T13:25:13;220.70;;;210.13;;
11269;SDS011;5692;48.956;9.200;2022-08-01T13:27:39;237.77;;;226.40;;
11269;SDS011;5692;48.956;9.200;2022-08-01T13:30:13;240.03;;;228.53;;
11269;SDS011;5692;48.956;9.200;2022-08-01T13:32:39;205.10;;;195.30;;
11269;SDS011;5692;48.956;9.200;2022-08-01T13:35:08;212.93;;;202.73;;
11269;SDS011;5692;48.956;9.200;2022-08-01T13:37:35;234.93;;;223.70;;
11269;SDS011;5692;48.956;9.200;2022-08-01T13:40:01;249.57;;;237.63;;
11269;SDS011;5692;48.956;9.200;2022-08-01T13:42:27;277.13;;;263.90;;
11269;SDS011;5692;48.956;9.200;2022-08-01T13:44:54;270.63;;;257.70;;
11269;SDS011;5692;48.956;9.200;2022-08-01T13:47:20;290.90;;;277.00;;
11269;SDS011;5692;48.956;9.200;2022-08-01T13:49:46;267.60;;;254.83;;
11269;SDS011;5692;48.956;9.200;2022-08-01T13:52:12;273.23;;;260.17;;
11269;SDS011;5692;48.956;9.200;2022-08-01T13:54:38;260.27;;;247.83;;
11269;SDS011;5692;48.956;9.200;2022-08-01T13:57:04;245.83;;;234.07;;
11269;SDS011;5692;48.956;9.200;2022-08-01T13:59:30;256.13;;;243.90;;
11269;SDS011;5692;48.956;9.200;2022-08-01T14:01:56;264.97;;;252.27;;
11269;SDS011;5692;48.956;9.200;2022-08-01T14:04:22;260.07;;;247.63;;
11269;SDS011;5692;48.956;9.200;2022-08-01T14:06:48;263.97;;;251.37;;
11269;SDS011;5692;48.956;9.200;2022-08-01T14:09:14;271.77;;;258.77;;
11269;SDS011;5692;48.956;9.200;2022-08-01T14:11:42;259.23;;;246.83;;
11269;SDS011;5692;48.956;9.200;2022-08-01T14:14:08;247.40;;;235.57;;
11269;SDS011;5692;48.956;9.200;2022-08-01T14:16:34;266.17;;;253.43;;
11269;SDS011;5692;48.956;9.200;2022-08-01T14:19:02;249.30;;;237.37;;
11269;SDS011;5692;48.956;9.200;2022-08-01T14:21:28;255.77;;;243.53;;
11269;SDS011;5692;48.956;9.200;2022-08-01T14:23:54;245.17;;;233.47;;
11269;SDS011;5692;48.956;9.200;2022-08-01T14:26:20;258.03;;;245.70;;
11269;SDS011;5692;48.956;9.200;2022-08-01T14:28:47;260.30;;;247.83;;
11269;SDS011;5692;48.956;9.200;2022-08-01T14:31:13;263.60;;;251.00;;
11269;SDS011;5692;48.956;9.200;2022-08-01T14:33:39;278.43;;;265.13;;
11269;SDS011;5692;48.956;9.200;2022-08-01T14:36:05;292.53;;;278.53;;
11269;SDS011;5692;48.956;9.200;2022-08-01T14:38:31;248.63;;;236.73;;
11269;SDS011;5692;48.956;9.200;2022-08-01T14:40:57;257.13;;;244.83;;
11269;SDS011;5692;48.956;9.200;2022-08-01T14:43:24;245.80;;;234.03;;
11269;SDS011;5692;48.956;9.200;2022-08-01T14:45:51;241.33;;;229.80;;
11269;SDS011;5692;48.956;9.200;2022-08-01T14:48:19;256.40;;;244.13;;
11269;SDS011;5692;48.956;9.200;2022-08-01T14:50:45;262.33;;;249.80;;
11269;SDS011;5692;48.956;9.200;2022-08-01T14:53:11;273.03;;;259.97;;
11269;SDS011;5692;48.956;9.200;2022-08-01T14:55:40;260.00;;;247.60;;